createdAt,value
2018-01-15T00:01:41.416Z,17.47
2018-01-15T00:04:08.045Z,17.43
2018-01-15T00:06:34.636Z,18.73
2018-01-15T00:09:01.236Z,15.40
2018-01-15T00:11:28.335Z,15.38
2018-01-15T00:13:54.931Z,17.43
2018-01-15T00:16:21.539Z,17.27
2018-01-15T00:18:48.137Z,15.70
2018-01-15T00:21:14.784Z,17.53
2018-01-15T00:23:41.387Z,19.33
2018-01-15T00:26:08.004Z,15.27
2018-01-15T00:28:34.611Z,18.97
2018-01-15T00:31:01.230Z,19.87
2018-01-15T00:33:27.848Z,18.77
2018-01-15T00:35:54.464Z,18.17
2018-01-15T00:38:21.127Z,19.70
2018-01-15T00:40:47.758Z,15.87
2018-01-15T00:43:14.371Z,18.10
2018-01-15T00:45:40.980Z,17.47
2018-01-15T00:48:07.617Z,21.50
2018-01-15T00:50:34.229Z,17.47
2018-01-15T00:53:00.856Z,14.57
2018-01-15T00:55:27.454Z,21.13
2018-01-15T00:57:54.051Z,17.73
2018-01-15T01:00:20.680Z,23.10
2018-01-15T01:02:47.273Z,19.20
2018-01-15T01:05:14.116Z,16.97
2018-01-15T01:07:40.696Z,18.30
2018-01-15T01:10:07.330Z,18.87
2018-01-15T01:12:33.931Z,18.53
2018-01-15T01:15:00.523Z,17.20
2018-01-15T01:17:27.138Z,21.30
2018-01-15T01:19:53.753Z,18.10
2018-01-15T01:22:20.394Z,22.53
2018-01-15T01:24:47.002Z,18.83
2018-01-15T01:27:13.623Z,23.07
2018-01-15T01:29:40.251Z,24.93
2018-01-15T01:32:06.875Z,23.10
2018-01-15T01:34:33.476Z,18.33
2018-01-15T01:37:00.114Z,20.53
2018-01-15T01:39:26.750Z,22.13
2018-01-15T01:41:53.395Z,17.27
2018-01-15T01:44:19.986Z,18.30
2018-01-15T01:46:46.620Z,21.37
2018-01-15T01:49:13.243Z,23.13
2018-01-15T01:51:39.881Z,18.03
2018-01-15T01:54:06.492Z,17.40
2018-01-15T01:56:33.117Z,18.57
2018-01-15T01:58:59.762Z,22.40
2018-01-15T02:01:26.377Z,19.30
2018-01-15T02:03:52.964Z,17.10
2018-01-15T02:06:19.598Z,23.80
2018-01-15T02:08:46.196Z,27.03
2018-01-15T02:11:12.803Z,19.20
2018-01-15T02:13:39.410Z,20.77
2018-01-15T02:16:05.999Z,18.70
2018-01-15T02:18:32.625Z,17.50
2018-01-15T02:20:59.239Z,18.53
2018-01-15T02:23:25.854Z,23.23
2018-01-15T02:25:52.457Z,19.10
2018-01-15T02:28:19.071Z,22.23
2018-01-15T02:30:45.672Z,17.30
2018-01-15T02:33:12.305Z,18.90
2018-01-15T02:35:38.952Z,20.80
2018-01-15T02:38:05.555Z,18.00
2018-01-15T02:40:32.158Z,20.17
2018-01-15T02:42:58.795Z,19.37
2018-01-15T02:45:25.401Z,20.17
2018-01-15T02:47:51.984Z,21.30
2018-01-15T02:50:18.601Z,18.77
2018-01-15T02:52:45.232Z,19.40
2018-01-15T02:55:11.855Z,20.73
2018-01-15T02:57:38.460Z,17.60
2018-01-15T03:00:05.078Z,22.50
2018-01-15T03:02:31.715Z,21.33
2018-01-15T03:04:58.304Z,21.33
2018-01-15T03:07:24.930Z,23.40
2018-01-15T03:09:51.526Z,18.67
2018-01-15T03:12:18.111Z,19.83
2018-01-15T03:14:44.750Z,18.90
2018-01-15T03:17:11.356Z,21.37
2018-01-15T03:19:37.964Z,21.47
2018-01-15T03:22:04.580Z,19.93
2018-01-15T03:24:31.198Z,19.80
2018-01-15T03:26:57.809Z,22.53
2018-01-15T03:29:24.396Z,23.67
2018-01-15T03:31:51.030Z,20.57
2018-01-15T03:34:17.649Z,16.57
2018-01-15T03:36:44.285Z,20.93
2018-01-15T03:39:10.866Z,17.93
2018-01-15T03:41:37.485Z,20.33
2018-01-15T03:44:04.074Z,19.57
2018-01-15T03:46:30.691Z,20.80
2018-01-15T03:48:57.282Z,16.77
2018-01-15T03:51:23.928Z,21.90
2018-01-15T03:53:50.531Z,17.83
2018-01-15T03:56:17.125Z,20.07
2018-01-15T03:58:43.743Z,18.77
2018-01-15T04:01:10.365Z,18.27
2018-01-15T04:03:36.976Z,21.27
2018-01-15T04:06:03.567Z,21.20
2018-01-15T04:08:30.209Z,21.53
2018-01-15T04:10:56.795Z,18.83
2018-01-15T04:13:23.400Z,18.70
2018-01-15T04:15:50.016Z,17.23
2018-01-15T04:18:16.604Z,18.30
2018-01-15T04:20:43.258Z,17.87
2018-01-15T04:23:09.881Z,20.47
2018-01-15T04:25:36.475Z,21.03
2018-01-15T04:28:03.076Z,16.60
2018-01-15T04:30:29.687Z,19.03
2018-01-15T04:32:56.314Z,20.30
2018-01-15T04:35:22.935Z,20.03
2018-01-15T04:37:49.532Z,21.60
2018-01-15T04:40:16.155Z,24.10
2018-01-15T04:42:42.751Z,16.10
2018-01-15T04:45:09.371Z,20.40
2018-01-15T04:47:35.983Z,21.10
2018-01-15T04:50:02.608Z,18.60
2018-01-15T04:52:29.236Z,17.97
2018-01-15T04:54:55.870Z,19.87
2018-01-15T04:57:22.510Z,20.60
2018-01-15T04:59:49.111Z,23.93
2018-01-15T05:02:15.748Z,21.87
2018-01-15T05:04:42.594Z,22.57
2018-01-15T05:07:09.205Z,16.93
2018-01-15T05:09:35.811Z,25.80
2018-01-15T05:12:02.448Z,21.47
2018-01-15T05:14:29.059Z,22.47
2018-01-15T05:16:55.683Z,20.27
2018-01-15T05:19:22.295Z,20.60
2018-01-15T05:21:48.898Z,19.73
2018-01-15T05:24:15.570Z,18.67
2018-01-15T05:26:42.147Z,24.03
2018-01-15T05:29:08.783Z,24.53
2018-01-15T05:31:35.366Z,23.00
2018-01-15T05:34:01.974Z,24.70
2018-01-15T05:36:28.615Z,30.10
2018-01-15T05:38:55.252Z,19.27
2018-01-15T05:41:21.871Z,23.00
2018-01-15T05:43:48.483Z,19.00
2018-01-15T05:46:15.092Z,22.00
2018-01-15T05:48:41.700Z,24.80
2018-01-15T05:51:08.388Z,21.27
2018-01-15T05:53:35.000Z,23.30
2018-01-15T05:56:01.614Z,24.17
2018-01-15T05:58:28.231Z,21.97
2018-01-15T06:00:54.865Z,23.33
2018-01-15T06:03:21.459Z,21.43
2018-01-15T06:05:48.118Z,17.53
2018-01-15T06:08:14.737Z,22.17
2018-01-15T06:10:41.425Z,25.40
2018-01-15T06:13:08.077Z,21.80
2018-01-15T06:15:34.712Z,24.13
2018-01-15T06:18:01.325Z,33.43
2018-01-15T06:20:27.949Z,18.58
2018-01-15T06:22:54.572Z,23.33
2018-01-15T06:25:21.182Z,20.80
2018-01-15T06:27:47.805Z,21.20
2018-01-15T06:30:14.415Z,25.93
2018-01-15T06:32:41.048Z,25.83
2018-01-15T06:35:07.657Z,21.77
2018-01-15T06:37:34.289Z,23.47
2018-01-15T06:40:00.983Z,23.60
2018-01-15T06:42:27.623Z,25.30
2018-01-15T06:44:54.231Z,24.93
2018-01-15T06:47:20.904Z,21.27
2018-01-15T06:49:47.487Z,20.97
2018-01-15T06:52:14.137Z,25.30
2018-01-15T06:54:40.761Z,24.30
2018-01-15T06:57:07.345Z,23.20
2018-01-15T06:59:33.966Z,27.27
2018-01-15T07:02:00.567Z,25.93
2018-01-15T07:04:27.210Z,24.73
2018-01-15T07:06:53.789Z,28.87
2018-01-15T07:09:20.416Z,23.03
2018-01-15T07:11:47.025Z,23.23
2018-01-15T07:14:13.639Z,30.30
2018-01-15T07:16:40.242Z,25.40
2018-01-15T07:19:06.868Z,24.87
2018-01-15T07:21:33.463Z,26.90
2018-01-15T07:24:00.050Z,28.80
2018-01-15T07:26:26.675Z,28.00
2018-01-15T07:28:53.291Z,34.93
2018-01-15T07:31:19.918Z,37.97
2018-01-15T07:33:46.594Z,38.33
2018-01-15T07:36:13.222Z,36.67
2018-01-15T07:38:39.871Z,41.80
2018-01-15T07:41:06.510Z,40.07
2018-01-15T07:43:33.146Z,40.30
2018-01-15T07:45:59.798Z,35.10
2018-01-15T07:48:26.421Z,45.20
2018-01-15T07:50:53.056Z,35.00
2018-01-15T07:53:19.673Z,33.70
2018-01-15T07:55:46.273Z,31.83
2018-01-15T07:58:12.887Z,32.77
2018-01-15T08:00:39.534Z,31.50
2018-01-15T08:03:06.144Z,29.80
2018-01-15T08:05:32.756Z,29.57
2018-01-15T08:07:59.363Z,33.70
2018-01-15T08:10:25.973Z,33.83
2018-01-15T08:12:52.614Z,33.03
2018-01-15T08:15:19.190Z,37.67
2018-01-15T08:17:45.808Z,34.30
2018-01-15T08:20:12.422Z,30.23
2018-01-15T08:22:39.018Z,30.33
2018-01-15T08:25:05.659Z,26.43
2018-01-15T08:27:32.269Z,27.83
2018-01-15T08:29:58.899Z,27.87
2018-01-15T08:32:25.513Z,32.83
2018-01-15T08:34:52.147Z,30.00
2018-01-15T08:37:18.748Z,30.40
2018-01-15T08:39:45.363Z,30.33
2018-01-15T08:42:11.983Z,25.40
2018-01-15T08:44:38.620Z,33.43
2018-01-15T08:47:05.260Z,34.00
2018-01-15T09:33:10.620Z,30.17
2018-01-15T09:35:37.235Z,37.60
2018-01-15T09:38:03.885Z,34.20
2018-01-15T09:40:30.503Z,30.27
2018-01-15T09:42:57.135Z,24.03
2018-01-15T09:45:23.763Z,29.70
2018-01-15T09:47:50.439Z,27.77
2018-01-15T09:50:17.064Z,28.40
2018-01-15T09:52:43.668Z,31.10
2018-01-15T09:55:10.305Z,26.97
2018-01-15T09:57:36.907Z,28.87
2018-01-15T10:00:03.557Z,32.83
2018-01-15T10:02:30.164Z,23.90
2018-01-15T10:04:56.771Z,28.73
2018-01-15T10:07:23.410Z,27.80
2018-01-15T10:09:50.011Z,28.20
2018-01-15T10:12:16.631Z,27.00
2018-01-15T10:14:43.219Z,29.53
2018-01-15T10:17:09.860Z,26.80
2018-01-15T10:19:36.457Z,27.83
2018-01-15T10:22:03.188Z,26.10
2018-01-15T10:24:29.838Z,27.40
2018-01-15T10:26:56.441Z,29.57
2018-01-15T10:29:23.100Z,35.03
2018-01-15T10:31:49.779Z,35.70
2018-01-15T10:34:16.477Z,38.63
2018-01-15T10:36:43.095Z,29.53
2018-01-15T10:39:09.736Z,28.93
2018-01-15T10:41:36.369Z,40.87
2018-01-15T10:44:03.287Z,34.90
2018-01-15T10:46:32.928Z,33.10
2018-01-15T10:48:59.561Z,51.23
2018-01-15T10:51:26.223Z,72.83
2018-01-15T10:53:52.883Z,40.13
2018-01-15T10:56:19.483Z,33.03
2018-01-15T10:58:46.112Z,32.50
2018-01-15T11:01:18.438Z,37.37
2018-01-15T11:03:45.033Z,36.10
2018-01-15T11:06:11.673Z,87.00
2018-01-15T11:08:38.333Z,40.80
2018-01-15T11:11:04.995Z,36.10
2018-01-15T11:13:31.658Z,42.10
2018-01-15T11:15:58.311Z,40.27
2018-01-15T11:18:24.934Z,33.23
2018-01-15T11:20:51.572Z,44.33
2018-01-15T11:23:18.182Z,32.50
2018-01-15T11:25:44.784Z,40.30
2018-01-15T11:28:11.423Z,28.97
2018-01-15T11:30:38.025Z,32.67
2018-01-15T11:33:04.664Z,43.63
2018-01-15T11:35:31.302Z,33.77
2018-01-15T11:37:57.960Z,37.37
2018-01-15T11:40:24.557Z,32.30
2018-01-15T11:42:51.196Z,29.63
2018-01-15T11:45:17.805Z,29.50
2018-01-15T11:47:44.418Z,28.03
2018-01-15T11:50:11.050Z,26.67
2018-01-15T11:52:37.688Z,34.00
2018-01-15T11:55:04.302Z,26.27
2018-01-15T11:57:30.985Z,33.93
2018-01-15T11:59:57.680Z,31.40
2018-01-15T12:02:24.294Z,29.77
2018-01-15T12:04:50.946Z,36.50
2018-01-15T12:07:17.522Z,27.40
2018-01-15T12:09:44.136Z,31.57
2018-01-15T12:12:10.769Z,30.97
2018-01-15T12:14:37.421Z,28.93
2018-01-15T12:17:04.032Z,36.73
2018-01-15T12:19:30.654Z,32.73
2018-01-15T12:21:57.313Z,35.13
2018-01-15T12:24:23.878Z,32.67
2018-01-15T12:26:50.479Z,27.90
2018-01-15T12:29:17.099Z,43.43
2018-01-15T12:31:43.711Z,29.93
2018-01-15T12:34:10.347Z,30.03
2018-01-15T12:36:36.980Z,30.73
2018-01-15T12:39:04.140Z,30.92
2018-01-15T12:41:30.815Z,26.40
2018-01-15T12:43:57.386Z,28.30
2018-01-15T12:46:24.042Z,40.43
2018-01-15T12:48:50.786Z,24.43
2018-01-15T12:51:17.420Z,25.60
2018-01-15T12:53:44.001Z,27.20
2018-01-15T12:56:10.612Z,25.17
2018-01-15T12:58:37.211Z,33.13
2018-01-15T13:01:03.818Z,30.53
2018-01-15T13:03:30.440Z,27.00
2018-01-15T13:06:02.978Z,24.83
2018-01-15T13:08:35.507Z,29.30
2018-01-15T13:11:02.296Z,26.33
2018-01-15T13:13:29.175Z,25.33
2018-01-15T13:15:55.778Z,26.00
2018-01-15T13:18:22.530Z,30.73
2018-01-15T13:20:49.156Z,25.53
2018-01-15T13:23:16.649Z,28.10
2018-01-15T13:25:43.276Z,31.63
2018-01-15T13:28:10.109Z,30.87
2018-01-15T13:30:36.690Z,27.83
2018-01-15T13:33:03.272Z,27.93
2018-01-15T13:35:29.929Z,21.77
2018-01-15T13:37:56.545Z,28.67
2018-01-15T13:40:23.170Z,29.73
2018-01-15T13:42:49.835Z,22.30
2018-01-15T13:45:16.445Z,28.37
2018-01-15T13:47:43.095Z,24.97
2018-01-15T13:50:09.740Z,18.33
2018-01-15T13:52:36.336Z,23.47
2018-01-15T13:55:02.946Z,24.83
2018-01-15T13:57:29.601Z,26.13
2018-01-15T13:59:56.231Z,24.50
2018-01-15T14:02:22.830Z,19.17
2018-01-15T14:04:49.449Z,23.83
2018-01-15T14:07:16.172Z,24.33
2018-01-15T14:09:42.800Z,17.40
2018-01-15T14:12:09.466Z,23.40
2018-01-15T14:14:36.088Z,32.10
2018-01-15T14:17:02.924Z,20.13
2018-01-15T14:19:29.769Z,14.73
2018-01-15T14:21:56.374Z,17.70
2018-01-15T14:24:23.024Z,18.57
2018-01-15T14:26:49.744Z,13.70
2018-01-15T14:29:16.374Z,12.70
2018-01-15T14:31:42.971Z,10.67
2018-01-15T14:34:09.616Z,13.40
2018-01-15T14:36:36.226Z,12.17
2018-01-15T14:39:02.840Z,10.43
2018-01-15T14:41:29.455Z,11.47
2018-01-15T14:43:56.052Z,10.10
2018-01-15T14:46:22.681Z,10.80
2018-01-15T14:48:49.475Z,12.47
2018-01-15T14:51:16.109Z,14.13
2018-01-15T14:53:42.817Z,12.17
2018-01-15T14:56:09.480Z,8.50
2018-01-15T14:58:36.116Z,9.50
2018-01-15T15:01:02.744Z,8.63
2018-01-15T15:03:29.367Z,8.53
2018-01-15T15:05:55.999Z,18.90
2018-01-15T15:08:22.610Z,8.77
2018-01-15T15:10:49.320Z,9.33
2018-01-15T15:13:15.919Z,8.30
2018-01-15T15:15:42.548Z,8.63
2018-01-15T15:18:09.176Z,8.77
2018-01-15T15:20:35.781Z,7.97
2018-01-15T15:23:02.420Z,8.60
2018-01-15T15:25:29.116Z,7.97
2018-01-15T15:27:55.733Z,7.80
2018-01-15T15:30:22.378Z,6.77
2018-01-15T15:32:48.982Z,8.13
2018-01-15T15:35:15.603Z,7.57
2018-01-15T15:37:42.190Z,8.10
2018-01-15T15:40:08.807Z,8.03
2018-01-15T15:42:35.447Z,13.53
2018-01-15T15:45:02.044Z,7.87
2018-01-15T15:47:28.676Z,10.63
2018-01-15T15:49:55.318Z,9.43
2018-01-15T15:52:21.966Z,9.00
2018-01-15T15:54:48.672Z,8.87
2018-01-15T15:57:15.269Z,9.80
2018-01-15T15:59:41.958Z,9.07
2018-01-15T16:02:08.653Z,10.20
2018-01-15T16:04:35.268Z,11.07
2018-01-15T16:07:01.844Z,10.87
2018-01-15T16:09:28.484Z,14.53
2018-01-15T16:11:55.124Z,14.23
2018-01-15T16:14:21.775Z,11.57
2018-01-15T16:16:48.395Z,14.97
2018-01-15T16:19:15.020Z,12.87
2018-01-15T16:21:41.617Z,13.83
2018-01-15T16:24:08.289Z,15.43
2018-01-15T16:26:34.890Z,19.90
2018-01-15T16:29:01.537Z,14.33
2018-01-15T16:31:28.183Z,17.60
2018-01-15T16:33:54.834Z,15.83
2018-01-15T16:36:21.454Z,19.50
2018-01-15T16:38:48.048Z,19.97
2018-01-15T16:41:14.681Z,19.33
2018-01-15T16:43:41.316Z,15.00
2018-01-15T16:46:07.993Z,21.43
2018-01-15T16:48:34.716Z,18.37
2018-01-15T16:51:01.420Z,14.97
2018-01-15T16:53:28.020Z,17.63
2018-01-15T16:55:54.663Z,17.17
2018-01-15T16:58:21.512Z,16.70
2018-01-15T17:00:47.993Z,17.07
2018-01-15T17:03:14.600Z,20.23
2018-01-15T17:05:41.241Z,18.30
2018-01-15T17:08:07.895Z,22.03
2018-01-15T17:10:34.539Z,16.50
2018-01-15T17:13:01.173Z,13.77
2018-01-15T17:15:27.794Z,19.10
2018-01-15T17:17:54.429Z,20.53
2018-01-15T17:20:21.067Z,12.60
2018-01-15T17:22:47.684Z,16.90
2018-01-15T17:25:14.316Z,19.00
2018-01-15T17:27:41.068Z,13.00
2018-01-15T17:30:07.670Z,12.50
2018-01-15T17:32:34.302Z,14.63
2018-01-15T17:35:01.142Z,12.17
2018-01-15T17:37:27.785Z,14.00
2018-01-15T17:39:54.944Z,12.30
2018-01-15T17:42:21.560Z,11.40
2018-01-15T17:44:48.349Z,11.60
2018-01-15T17:47:14.950Z,12.40
2018-01-15T17:49:41.574Z,14.90
2018-01-15T17:52:08.170Z,13.07
2018-01-15T17:54:34.857Z,15.47
2018-01-15T17:57:01.531Z,13.33
2018-01-15T17:59:28.165Z,12.97
2018-01-15T18:01:54.955Z,16.23
2018-01-15T18:04:21.584Z,15.00
2018-01-15T18:06:48.184Z,15.90
2018-01-15T18:09:16.690Z,13.53
2018-01-15T18:11:43.581Z,12.90
2018-01-15T18:14:10.895Z,14.07
2018-01-15T18:16:38.575Z,11.47
2018-01-15T18:19:05.659Z,12.10
2018-01-15T18:21:32.705Z,11.30
2018-01-15T18:23:59.394Z,13.80
2018-01-15T18:26:26.023Z,12.37
2018-01-15T18:28:52.625Z,15.60
2018-01-15T18:31:19.263Z,11.97
2018-01-15T18:33:45.909Z,10.47
2018-01-15T18:36:12.525Z,14.07
2018-01-15T18:38:39.231Z,21.97
2018-01-15T18:41:06.084Z,14.77
2018-01-15T18:43:32.901Z,12.70
2018-01-15T18:46:00.063Z,11.50
2018-01-15T18:48:26.694Z,10.27
2018-01-15T18:50:53.297Z,9.90
2018-01-15T18:53:19.934Z,12.57
2018-01-15T18:55:46.560Z,14.73
2018-01-15T18:58:13.175Z,12.87
2018-01-15T19:00:39.955Z,16.53
2018-01-15T19:03:06.604Z,13.17
2018-01-15T19:05:33.323Z,11.63
2018-01-15T19:07:59.953Z,17.30
2018-01-15T19:10:26.609Z,17.10
2018-01-15T19:12:53.268Z,9.73
2018-01-15T19:15:20.464Z,10.47
2018-01-15T19:17:47.104Z,9.30
2018-01-15T19:20:13.745Z,8.80
2018-01-15T19:22:40.355Z,9.30
2018-01-15T19:25:07.007Z,10.03
2018-01-15T19:27:33.636Z,9.13
2018-01-15T19:30:00.276Z,8.47
2018-01-15T19:32:26.932Z,8.17
2018-01-15T19:34:59.356Z,13.47
2018-01-15T19:37:25.951Z,8.23
2018-01-15T19:39:52.659Z,17.00
2018-01-15T19:42:19.282Z,11.97
2018-01-15T19:44:52.028Z,8.77
2018-01-15T19:47:24.335Z,7.50
2018-01-15T19:49:56.592Z,8.03
2018-01-15T19:52:28.775Z,6.70
2018-01-15T19:55:01.089Z,7.90
2018-01-15T19:57:33.437Z,8.23
2018-01-15T20:00:15.105Z,7.50
2018-01-15T20:02:47.515Z,6.35
2018-01-15T20:05:20.037Z,7.13
2018-01-15T20:07:52.269Z,7.97
2018-01-15T20:10:24.818Z,14.63
2018-01-15T20:12:51.473Z,7.00
2018-01-15T20:15:18.099Z,5.97
2018-01-15T20:17:44.703Z,6.13
2018-01-15T20:20:11.368Z,6.33
2018-01-15T20:22:37.977Z,6.30
2018-01-15T20:25:04.661Z,5.77
2018-01-15T20:27:31.294Z,6.50
2018-01-15T20:29:57.912Z,6.07
2018-01-15T20:32:24.702Z,6.87
2018-01-15T20:34:51.464Z,6.30
2018-01-15T20:37:18.100Z,4.77
2018-01-15T20:39:44.675Z,6.07
2018-01-15T20:42:11.291Z,5.93
2018-01-15T20:44:37.923Z,6.00
2018-01-15T20:47:05.203Z,5.57
2018-01-15T20:49:31.980Z,5.70
2018-01-15T20:51:58.581Z,5.47
2018-01-15T20:54:25.243Z,5.83
2018-01-15T20:56:51.853Z,4.90
2018-01-15T20:59:18.507Z,6.30
2018-01-15T21:01:45.115Z,5.63
2018-01-15T21:04:11.768Z,5.27
2018-01-15T21:06:38.412Z,6.40
2018-01-15T21:09:05.096Z,5.60
2018-01-15T21:11:31.732Z,5.20
2018-01-15T21:13:58.349Z,5.50
2018-01-15T21:16:24.962Z,4.97
2018-01-15T21:18:51.593Z,4.83
2018-01-15T21:21:18.255Z,4.50
2018-01-15T21:23:44.844Z,4.30
2018-01-15T21:26:11.586Z,4.20
2018-01-15T21:28:38.164Z,3.80
2018-01-15T21:31:04.774Z,8.40
2018-01-15T21:33:31.422Z,3.60
2018-01-15T21:36:03.934Z,3.60
2018-01-15T21:38:30.813Z,3.77
2018-01-15T21:40:57.450Z,3.33
2018-01-15T21:43:24.109Z,3.20
2018-01-15T21:45:50.729Z,4.30
2018-01-15T21:48:17.356Z,2.53
2018-01-15T21:50:43.986Z,3.70
2018-01-15T21:53:11.372Z,4.10
2018-01-15T21:55:38.749Z,3.33
2018-01-15T21:58:06.248Z,3.10
2018-01-15T22:00:32.922Z,3.40
2018-01-15T22:02:59.575Z,3.00
2018-01-15T22:05:26.200Z,3.70
2018-01-15T22:07:52.816Z,3.67
2018-01-15T22:10:19.395Z,4.00
2018-01-15T22:12:46.001Z,3.67
2018-01-15T22:15:12.661Z,4.07
2018-01-15T22:20:20.824Z,6.13
2018-01-15T22:22:47.436Z,3.80
2018-01-15T22:25:14.041Z,3.47
2018-01-15T22:27:40.810Z,3.80
2018-01-15T22:30:07.520Z,3.93
2018-01-15T22:32:34.107Z,3.77
2018-01-15T22:35:00.722Z,3.60
2018-01-15T22:37:27.361Z,3.30
2018-01-15T22:39:54.009Z,2.50
2018-01-15T22:42:20.624Z,4.00
2018-01-15T22:44:47.239Z,3.10
2018-01-15T22:47:13.815Z,3.23
2018-01-15T22:49:40.421Z,2.70
2018-01-15T22:52:07.039Z,2.70
2018-01-15T22:54:33.667Z,2.40
2018-01-15T22:57:00.279Z,3.17
2018-01-15T22:59:26.896Z,3.30
2018-01-15T23:01:54.268Z,2.63
2018-01-15T23:04:20.861Z,2.83
2018-01-15T23:06:47.495Z,1.87
2018-01-15T23:09:14.137Z,2.23
2018-01-15T23:11:40.743Z,2.53
2018-01-15T23:14:07.331Z,1.90
2018-01-15T23:16:33.946Z,2.33
2018-01-15T23:19:00.555Z,2.30
2018-01-15T23:21:27.132Z,1.67
2018-01-15T23:23:53.746Z,1.70
2018-01-15T23:26:20.411Z,1.70
2018-01-15T23:28:47.008Z,1.83
2018-01-15T23:31:13.587Z,2.37
2018-01-15T23:33:40.217Z,1.60
2018-01-15T23:36:06.833Z,2.00
2018-01-15T23:38:34.120Z,1.77
2018-01-15T23:41:00.727Z,1.40
2018-01-15T23:43:27.416Z,2.07
2018-01-15T23:45:53.987Z,1.47
2018-01-15T23:48:20.584Z,1.70
2018-01-15T23:50:48.032Z,1.33
2018-01-15T23:53:14.664Z,0.70
2018-01-15T23:55:41.251Z,0.80
2018-01-15T23:58:07.851Z,1.07
